Terminal Aerodrome Forecast
Issued by NWS Springfield, MO

Home | Current Version | Previous Version | Text Only | Print | Product List | Glossary On
Versions: 1 2 3 4 5 6 7 8 9 10 11 12 13 14 15 16 17 18 19 20 21 22 23 24 25 26 27
000
FTUS43 KSGF 260700 AAB
TAFSGF
TAF AMD
KSGF 260700Z 2607/2706 21015G22KT P6SM -SHRA FEW015 SCT050 OVC100
      TEMPO 2608/2610 BKN015
     FM261000 22010KT P6SM BKN015 OVC100
      TEMPO 2610/2613 BKN008
     FM261600 24010KT P6SM FEW025
     FM270100 20007KT P6SM SCT120=

USA.gov is the U.S. government's official web portal to all federal, state and local government web resources and services.